Time,TemperatureF,DewpointF,PressureIn,WindDirection,WindDirectionDegrees,WindSpeedMPH,WindSpeedGustMPH,Humidity,HourlyPrecipIn,Conditions,Clouds,dailyrainin,SolarRadiationWatts/m^2,SoftwareType,DateUTC
2013-02-17 00:01:00,41.0,15.0,-100.00,South,185,5.0,10.0,34,-99.99,,,0.00,0.000000,,2013-02-17 08:01:00,
2013-02-17 00:11:00,41.0,15.0,-100.00,South,185,5.0,10.0,34,-99.99,,,0.00,0.000000,,2013-02-17 08:11:00,
2013-02-17 00:21:00,41.0,15.0,-100.00,South,185,5.0,10.0,34,-99.99,,,0.00,0.000000,,2013-02-17 08:21:00,
2013-02-17 00:52:00,40.0,16.0,-100.00,WNW,301,6.0,10.0,38,0.00,,,-99.99,0.000000,,2013-02-17 08:52:00,
2013-02-17 01:01:00,40.0,16.0,-100.00,WNW,301,6.0,10.0,38,0.00,,,-99.99,0.000000,,2013-02-17 09:01:00,
2013-02-17 01:11:00,40.0,16.0,-100.00,WNW,301,6.0,10.0,38,0.00,,,-99.99,0.000000,,2013-02-17 09:11:00,
2013-02-17 01:21:00,40.0,16.0,-100.00,WNW,301,6.0,10.0,38,0.00,,,-99.99,0.000000,,2013-02-17 09:21:00,
2013-02-17 01:52:00,37.0,13.0,-100.00,NW,309,5.0,9.0,36,0.00,,,0.00,0.000000,,2013-02-17 09:52:00,
2013-02-17 02:01:00,37.0,13.0,-100.00,NW,309,5.0,9.0,36,0.00,,,0.00,0.000000,,2013-02-17 10:01:00,
2013-02-17 02:52:00,37.0,12.0,-100.00,WNW,295,5.0,7.0,35,-99.99,,,0.00,0.000000,,2013-02-17 10:52:00,
2013-02-17 03:01:00,37.0,12.0,-100.00,WNW,295,5.0,7.0,35,-99.99,,,0.00,0.000000,,2013-02-17 11:01:00,
2013-02-17 03:52:00,35.0,12.0,-100.00,SSW,211,4.0,7.0,38,0.00,,,0.00,0.000000,,2013-02-17 11:52:00,
2013-02-17 04:03:00,35.0,12.0,-100.00,SSW,211,4.0,7.0,38,0.00,,,0.00,0.000000,,2013-02-17 12:03:00,
2013-02-17 04:52:00,33.0,12.0,-100.00,NNW,340,6.0,11.0,41,-99.99,,,0.00,0.000000,,2013-02-17 12:52:00,
2013-02-17 05:02:00,33.0,12.0,-100.00,NNW,340,6.0,11.0,41,-99.99,,,0.00,0.000000,,2013-02-17 13:02:00,
2013-02-17 05:52:00,33.0,12.0,-100.00,WNW,294,5.0,10.0,42,-99.99,,,-99.99,0.000000,,2013-02-17 13:52:00,
2013-02-17 06:01:00,33.0,12.0,-100.00,WNW,294,5.0,10.0,42,-99.99,,,-99.99,0.000000,,2013-02-17 14:01:00,
2013-02-17 06:21:00,33.0,12.0,-100.00,WNW,294,5.0,10.0,42,-99.99,,,-99.99,0.000000,,2013-02-17 14:21:00,
2013-02-17 06:53:00,32.0,14.0,-100.00,North,358,5.0,9.0,47,-99.99,,,0.00,0.000000,,2013-02-17 14:53:00,
2013-02-17 07:01:00,32.0,14.0,-100.00,North,358,5.0,9.0,47,-99.99,,,0.00,0.000000,,2013-02-17 15:01:00,
2013-02-17 07:52:00,38.0,19.0,-100.00,NW,325,6.0,11.0,45,-99.99,,,0.00,42.000000,,2013-02-17 15:52:00,
2013-02-17 08:01:00,38.0,19.0,-100.00,NW,325,6.0,11.0,45,-99.99,,,0.00,42.000000,,2013-02-17 16:01:00,
2013-02-17 08:11:00,38.0,19.0,-100.00,NW,325,6.0,11.0,45,-99.99,,,0.00,42.000000,,2013-02-17 16:11:00,
2013-02-17 08:21:00,38.0,19.0,-100.00,NW,325,6.0,11.0,45,-99.99,,,0.00,42.000000,,2013-02-17 16:21:00,
2013-02-17 08:52:00,44.0,18.0,-100.00,North,354,7.0,13.0,35,0.00,,,0.00,242.000000,,2013-02-17 16:52:00,
2013-02-17 09:02:00,44.0,18.0,-100.00,North,354,7.0,13.0,35,0.00,,,0.00,242.000000,,2013-02-17 17:02:00,
2013-02-17 09:11:00,44.0,18.0,-100.00,North,354,7.0,13.0,35,0.00,,,0.00,242.000000,,2013-02-17 17:11:00,
2013-02-17 09:21:00,44.0,18.0,-100.00,North,354,7.0,13.0,35,0.00,,,0.00,242.000000,,2013-02-17 17:21:00,
2013-02-17 09:52:00,50.0,17.0,-100.00,SSE,155,9.0,17.0,27,0.00,,,0.00,455.000000,,2013-02-17 17:52:00,
2013-02-17 10:01:00,50.0,17.0,-100.00,SSE,155,9.0,17.0,27,0.00,,,0.00,455.000000,,2013-02-17 18:01:00,
2013-02-17 10:11:00,50.0,17.0,-100.00,SSE,155,9.0,17.0,27,0.00,,,0.00,455.000000,,2013-02-17 18:11:00,
2013-02-17 10:21:00,50.0,17.0,-100.00,SSE,155,9.0,17.0,27,0.00,,,0.00,455.000000,,2013-02-17 18:21:00,
2013-02-17 10:52:00,51.0,16.0,-100.00,ENE,72,8.0,16.0,25,0.00,,,0.00,656.000000,,2013-02-17 18:52:00,
2013-02-17 11:01:00,51.0,16.0,-100.00,ENE,72,8.0,16.0,25,0.00,,,0.00,656.000000,,2013-02-17 19:01:00,
2013-02-17 11:52:00,54.0,17.0,-100.00,NNW,348,9.0,17.0,23,0.00,,,0.00,804.000000,,2013-02-17 19:52:00,
2013-02-17 12:01:00,54.0,17.0,-100.00,NNW,348,9.0,17.0,23,0.00,,,0.00,804.000000,,2013-02-17 20:01:00,
2013-02-17 12:11:00,54.0,17.0,-100.00,NNW,348,9.0,17.0,23,0.00,,,0.00,804.000000,,2013-02-17 20:11:00,
2013-02-17 12:21:00,54.0,17.0,-100.00,NNW,348,9.0,17.0,23,0.00,,,0.00,804.000000,,2013-02-17 20:21:00,
2013-02-17 12:52:00,57.0,17.0,-100.00,NW,311,8.0,17.0,21,0.00,,,0.00,860.000000,,2013-02-17 20:52:00,
2013-02-17 13:01:00,57.0,17.0,-100.00,NW,311,8.0,17.0,21,0.00,,,0.00,860.000000,,2013-02-17 21:01:00,
2013-02-17 13:11:00,57.0,17.0,-100.00,NW,311,8.0,17.0,21,0.00,,,0.00,860.000000,,2013-02-17 21:11:00,
2013-02-17 13:21:00,57.0,17.0,-100.00,NW,311,8.0,17.0,21,0.00,,,0.00,860.000000,,2013-02-17 21:21:00,
2013-02-17 13:53:00,59.0,17.0,-100.00,SW,216,8.0,17.0,19,0.00,,,0.00,835.000000,,2013-02-17 21:53:00,
2013-02-17 14:01:00,59.0,17.0,-100.00,SW,216,8.0,17.0,19,0.00,,,0.00,835.000000,,2013-02-17 22:01:00,
2013-02-17 14:11:00,59.0,17.0,-100.00,SW,216,8.0,17.0,19,0.00,,,0.00,835.000000,,2013-02-17 22:11:00,
2013-02-17 14:21:00,59.0,17.0,-100.00,SW,216,8.0,17.0,19,0.00,,,0.00,835.000000,,2013-02-17 22:21:00,
2013-02-17 14:52:00,60.0,19.0,-100.00,NW,306,9.0,15.0,20,0.00,,,0.00,740.000000,,2013-02-17 22:52:00,
2013-02-17 15:02:00,60.0,19.0,-100.00,NW,306,9.0,15.0,20,0.00,,,0.00,740.000000,,2013-02-17 23:02:00,
2013-02-17 15:11:00,60.0,19.0,-100.00,NW,306,9.0,15.0,20,0.00,,,0.00,740.000000,,2013-02-17 23:11:00,
2013-02-17 15:21:00,60.0,19.0,-100.00,NW,306,9.0,15.0,20,0.00,,,0.00,740.000000,,2013-02-17 23:21:00,
2013-02-17 15:52:00,57.0,19.0,-100.00,SE,126,7.0,15.0,22,0.00,,,0.00,573.000000,,2013-02-17 23:52:00,
2013-02-17 16:01:00,57.0,19.0,-100.00,SE,126,7.0,15.0,22,0.00,,,0.00,573.000000,,2013-02-18 00:01:00,
2013-02-17 16:11:00,57.0,19.0,-100.00,SE,126,7.0,15.0,22,0.00,,,0.00,573.000000,,2013-02-18 00:11:00,
2013-02-17 16:22:00,57.0,19.0,-100.00,SE,126,7.0,15.0,22,0.00,,,0.00,573.000000,,2013-02-18 00:22:00,
2013-02-17 16:52:00,52.0,19.0,-100.00,SW,222,8.0,14.0,27,0.00,,,0.00,339.000000,,2013-02-18 00:52:00,
2013-02-17 17:01:00,52.0,19.0,-100.00,SW,222,8.0,14.0,27,0.00,,,0.00,339.000000,,2013-02-18 01:01:00,
2013-02-17 17:11:00,52.0,19.0,-100.00,SW,222,8.0,14.0,27,0.00,,,0.00,339.000000,,2013-02-18 01:11:00,
2013-02-17 17:21:00,52.0,19.0,-100.00,SW,222,8.0,14.0,27,0.00,,,0.00,339.000000,,2013-02-18 01:21:00,
2013-02-17 17:52:00,47.0,21.0,-100.00,SSW,212,6.0,13.0,36,0.00,,,0.00,32.000000,,2013-02-18 01:52:00,
2013-02-17 18:01:00,47.0,21.0,-100.00,SSW,212,6.0,13.0,36,0.00,,,0.00,32.000000,,2013-02-18 02:01:00,
2013-02-17 18:11:00,47.0,21.0,-100.00,SSW,212,6.0,13.0,36,0.00,,,0.00,32.000000,,2013-02-18 02:11:00,
2013-02-17 18:21:00,47.0,21.0,-100.00,SSW,212,6.0,13.0,36,0.00,,,0.00,32.000000,,2013-02-18 02:21:00,
2013-02-17 18:52:00,42.0,22.0,-100.00,SE,138,6.0,11.0,45,0.00,,,0.00,2.000000,,2013-02-18 02:52:00,
2013-02-17 19:01:00,42.0,22.0,-100.00,SE,138,6.0,11.0,45,0.00,,,0.00,2.000000,,2013-02-18 03:01:00,
2013-02-17 19:52:00,39.0,22.0,-100.00,NW,306,8.0,13.0,51,0.00,,,0.00,0.000000,,2013-02-18 03:52:00,
2013-02-17 20:01:00,39.0,22.0,-100.00,NW,306,8.0,13.0,51,0.00,,,0.00,0.000000,,2013-02-18 04:01:00,
2013-02-17 20:52:00,39.0,25.0,-100.00,SSW,192,7.0,12.0,57,0.00,,,0.00,0.000000,,2013-02-18 04:52:00,
2013-02-17 21:01:00,39.0,25.0,-100.00,SSW,192,7.0,12.0,57,0.00,,,0.00,0.000000,,2013-02-18 05:01:00,
2013-02-17 21:11:00,39.0,25.0,-100.00,SSW,192,7.0,12.0,57,0.00,,,0.00,0.000000,,2013-02-18 05:11:00,
2013-02-17 21:21:00,39.0,25.0,-100.00,SSW,192,7.0,12.0,57,0.00,,,0.00,0.000000,,2013-02-18 05:21:00,
2013-02-17 21:52:00,38.0,26.0,-100.00,WSW,249,6.0,10.0,61,0.00,,,0.00,0.000000,,2013-02-18 05:52:00,
2013-02-17 22:02:00,38.0,26.0,-100.00,WSW,249,6.0,10.0,61,0.00,,,0.00,0.000000,,2013-02-18 06:02:00,
2013-02-17 22:11:00,38.0,26.0,-100.00,WSW,249,6.0,10.0,61,0.00,,,0.00,0.000000,,2013-02-18 06:11:00,
2013-02-17 22:21:00,38.0,26.0,-100.00,WSW,249,6.0,10.0,61,0.00,,,0.00,0.000000,,2013-02-18 06:21:00,
2013-02-17 22:52:00,37.0,24.0,-100.00,ESE,117,7.0,12.0,59,0.00,,,0.00,0.000000,,2013-02-18 06:52:00,
2013-02-17 23:01:00,37.0,24.0,-100.00,ESE,117,7.0,12.0,59,0.00,,,0.00,0.000000,,2013-02-18 07:01:00,
2013-02-17 23:52:00,36.0,25.0,-100.00,NW,308,8.0,11.0,64,0.00,,,0.00,0.000000,,2013-02-18 07:52:00,